createdAt,value
2022-11-05T08:47:45.785Z,10.89
2022-11-05T10:02:00.356Z,12.95
2022-11-05T10:08:07.855Z,13.04
2022-11-05T10:14:21.866Z,12.87
2022-11-05T10:27:03.557Z,12.62
2022-11-05T10:33:20.615Z,12.78
2022-11-05T10:39:28.225Z,12.72
2022-11-05T10:52:59.394Z,12.69
2022-11-05T11:06:05.505Z,13.47
2022-11-05T11:12:22.858Z,13.85
2022-11-05T11:18:50.120Z,13.91
2022-11-05T11:24:57.822Z,13.49
2022-11-05T11:31:21.561Z,13.75
2022-11-05T11:37:33.824Z,13.78
2022-11-05T11:44:19.703Z,14.01
2022-11-05T11:50:42.347Z,14.06
2022-11-05T11:56:53.867Z,13.76
2022-11-05T12:03:24.074Z,14.07
2022-11-05T12:25:00.919Z,13.65
2022-11-05T12:32:03.180Z,13.90
2022-11-05T12:39:10.290Z,14.12
2022-11-05T12:45:41.891Z,13.53
2022-11-05T12:52:34.245Z,14.14
2022-11-05T13:05:28.650Z,13.24
2022-11-05T13:12:09.029Z,14.18
2022-11-05T13:18:26.736Z,13.53
2022-11-05T13:24:42.851Z,14.04
2022-11-05T13:30:59.456Z,14.20
2022-11-05T13:37:26.331Z,13.98
2022-11-05T13:43:46.008Z,14.29
2022-11-05T13:50:36.923Z,14.33
2022-11-05T13:56:58.478Z,14.33
2022-11-05T14:03:21.129Z,13.48
2022-11-05T14:09:52.117Z,13.82
2022-11-05T14:16:28.600Z,13.47
2022-11-05T14:22:33.402Z,14.32
2022-11-05T14:29:04.265Z,13.44
2022-11-05T14:35:41.303Z,13.57
2022-11-05T14:41:56.182Z,14.32
2022-11-05T14:48:04.546Z,14.28
2022-11-05T14:54:35.296Z,14.24
2022-11-05T15:00:40.917Z,14.26
2022-11-05T15:07:04.827Z,14.24
2022-11-05T15:13:10.865Z,13.93
2022-11-05T15:19:35.468Z,13.33
2022-11-05T15:25:56.706Z,14.18
2022-11-05T15:32:05.513Z,13.64
2022-11-05T15:39:15.246Z,13.34
2022-11-05T15:45:34.067Z,13.83
2022-11-05T15:51:38.572Z,13.30
2022-11-05T15:58:39.538Z,13.31
2022-11-05T16:05:16.189Z,13.19
2022-11-05T16:11:47.213Z,13.28
2022-11-05T16:17:51.383Z,14.13
2022-11-05T16:24:07.135Z,13.73
2022-11-05T16:30:31.550Z,13.25
2022-11-05T16:36:43.076Z,13.22
2022-11-05T16:42:51.750Z,13.77
2022-11-05T16:49:07.078Z,13.69
2022-11-05T16:55:31.616Z,13.64
2022-11-05T17:01:39.916Z,13.06
2022-11-05T17:07:48.218Z,13.84
2022-11-05T17:13:55.864Z,13.35
2022-11-05T17:20:41.002Z,13.04
2022-11-05T17:26:49.028Z,13.00
2022-11-05T17:32:56.347Z,13.71
2022-11-05T17:39:04.431Z,13.39
2022-11-05T17:45:19.699Z,13.10
2022-11-05T17:58:00.634Z,13.38
2022-11-05T18:04:09.350Z,13.61
2022-11-05T18:10:21.705Z,13.40
2022-11-05T18:16:23.779Z,13.35
2022-11-05T18:22:40.466Z,12.84
2022-11-05T18:28:53.017Z,13.18
2022-11-05T18:34:54.990Z,13.27
2022-11-05T18:41:17.304Z,12.90
2022-11-05T18:47:28.348Z,13.29
2022-11-05T19:06:29.597Z,13.48
2022-11-05T19:19:31.548Z,12.44
2022-11-05T19:32:13.655Z,12.93
2022-11-05T19:38:33.024Z,12.95
2022-11-05T19:44:35.622Z,12.80
2022-11-05T19:50:59.736Z,12.72
2022-11-05T19:57:09.997Z,12.77
2022-11-05T20:03:21.946Z,11.95
2022-11-05T20:09:33.427Z,11.98
2022-11-05T20:15:44.921Z,12.10
2022-11-05T20:28:15.228Z,12.45
2022-11-05T20:34:39.224Z,11.81
2022-11-05T20:47:11.961Z,11.79
2022-11-05T20:53:39.402Z,11.75
2022-11-05T20:59:54.151Z,12.16
2022-11-05T21:06:00.849Z,11.47
2022-11-05T21:12:11.954Z,11.46
2022-11-05T21:18:20.682Z,12.29
2022-11-05T21:24:24.597Z,11.96
2022-11-05T21:30:30.183Z,12.00
2022-11-05T21:45:03.406Z,11.27
2022-11-05T22:19:18.958Z,11.10
2022-11-05T22:25:48.372Z,10.93
2022-11-05T22:32:34.591Z,11.21
2022-11-05T22:45:03.383Z,11.51
2022-11-05T22:51:19.283Z,11.29
2022-11-05T23:04:49.542Z,10.80
2022-11-05T23:18:06.263Z,10.80
2022-11-05T23:31:04.420Z,11.30
2022-11-05T23:45:04.010Z,11.03
2022-11-05T23:57:26.696Z,10.78
